Time;durP1;ratioP1;P1;durP2;ratioP2;P2;SDS_P1;SDS_P2;PMS_P1;PMS_P2;Temp;Humidity;BMP_temperature;BMP_pressure;BME280_temperature;BME280_humidity;BME280_pressure;Samples;Min_cycle;Max_cycle;Signal;HPM_P1;HPM_P2
2021/12/27 00:00:36;;;;;;;17.48;7.43;;;;;;;-3.52;62.54;98366.62;4492547;31;20120;-74
2021/12/27 00:03:04;;;;;;;18.70;7.75;;;;;;;-3.52;63.02;98376.84;4500905;31;20473;-74
2021/12/27 00:05:31;;;;;;;19.75;8.25;;;;;;;-3.50;62.70;98364.81;4500789;31;20100;-74
2021/12/27 00:07:59;;;;;;;17.00;6.72;;;;;;;-3.47;62.61;98367.25;4500999;31;20100;-74
2021/12/27 00:10:30;;;;;;;15.65;7.15;;;;;;;-3.48;63.01;98357.06;4500854;31;20119;-74
2021/12/27 00:12:57;;;;;;;16.62;7.78;;;;;;;-3.57;63.06;98360.84;4500992;31;20507;-75
2021/12/27 00:15:25;;;;;;;19.52;9.02;;;;;;;-3.80;65.35;98354.03;4500699;31;20100;-74
2021/12/27 00:17:53;;;;;;;20.48;8.60;;;;;;;-3.95;66.53;98352.91;4499297;31;20108;-74
2021/12/27 00:20:20;;;;;;;22.13;9.13;;;;;;;-4.02;66.40;98348.88;4500918;31;20084;-74
2021/12/27 00:22:49;;;;;;;15.85;7.62;;;;;;;-4.00;66.40;98349.66;4500738;31;20378;-74
2021/12/27 00:25:17;;;;;;;19.42;7.78;;;;;;;-3.94;65.87;98360.50;4500849;31;20096;-74
2021/12/27 00:27:44;;;;;;;18.60;7.45;;;;;;;-3.86;65.47;98361.94;4500549;31;20115;-74
2021/12/27 00:30:13;;;;;;;18.12;7.62;;;;;;;-3.77;65.00;98362.44;4500760;31;20170;-74
2021/12/27 00:32:43;;;;;;;16.45;7.45;;;;;;;-3.88;64.84;98359.44;4500492;31;20183;-75
2021/12/27 00:35:12;;;;;;;13.88;6.03;;;;;;;-3.64;62.52;98349.16;4500508;31;20096;-75
2021/12/27 00:37:39;;;;;;;20.17;6.95;;;;;;;-3.59;62.13;98355.78;4500480;31;20096;-74
2021/12/27 00:40:08;;;;;;;12.32;5.70;;;;;;;-3.59;61.96;98358.34;4500676;31;20478;-74
2021/12/27 00:42:35;;;;;;;15.35;6.85;;;;;;;-3.59;60.99;98360.06;4500665;31;20114;-74
2021/12/27 00:45:03;;;;;;;18.20;6.62;;;;;;;-3.52;59.99;98364.06;4500543;31;20127;-74
2021/12/27 00:47:31;;;;;;;12.50;6.62;;;;;;;-3.48;59.71;98363.06;4500490;31;20148;-74
2021/12/27 00:49:58;;;;;;;16.20;7.70;;;;;;;-3.43;60.06;98368.81;4500437;31;20167;-74
2021/12/27 00:52:26;;;;;;;14.68;7.37;;;;;;;-3.58;61.74;98365.13;4500326;31;20461;-74
2021/12/27 00:54:53;;;;;;;21.62;7.82;;;;;;;-3.51;61.67;98357.19;4500414;31;20224;-74
2021/12/27 00:57:20;;;;;;;20.70;7.70;;;;;;;-3.37;60.76;98356.69;4500081;31;20156;-74
2021/12/27 00:59:48;;;;;;;17.10;7.55;;;;;;;-3.56;61.52;98352.25;4498133;31;20092;-74
2021/12/27 01:02:15;;;;;;;24.20;9.10;;;;;;;-3.77;62.99;98354.75;4484237;31;20484;-74
2021/12/27 01:04:42;;;;;;;20.83;9.48;;;;;;;-3.85;63.23;98349.06;4484317;31;20118;-74
2021/12/27 01:07:10;;;;;;;22.45;9.07;;;;;;;-3.88;63.73;98353.50;4484269;31;20093;-74
2021/12/27 01:15:33;;;;;;;18.80;7.20;;;;;;;-3.75;63.53;98367.50;4484267;32;20421;-74
2021/12/27 01:17:58;;;;;;;20.12;7.57;;;;;;;-3.81;65.08;98360.06;4483785;31;20240;-74
2021/12/27 01:20:26;;;;;;;18.25;7.43;;;;;;;-3.83;67.23;98362.66;4484248;31;20127;-75
2021/12/27 01:22:54;;;;;;;17.12;6.68;;;;;;;-3.72;67.83;98363.97;4484327;31;20116;-74
2021/12/27 01:25:22;;;;;;;16.80;7.28;;;;;;;-3.77;68.15;98359.03;4484101;31;20509;-74
2021/12/27 01:27:52;;;;;;;19.00;7.25;;;;;;;-3.70;68.29;98352.78;4483891;32;20477;-74
2021/12/27 01:30:21;;;;;;;18.20;7.68;;;;;;;-3.68;68.58;98351.03;4485650;31;20520;-75
2021/12/27 01:32:53;;;;;;;18.85;8.20;;;;;;;-3.66;68.54;98345.84;4486257;31;20084;-74
2021/12/27 01:35:21;;;;;;;20.30;7.70;;;;;;;-3.77;69.59;98336.00;4486208;31;20115;-74
2021/12/27 01:37:50;;;;;;;17.90;7.68;;;;;;;-3.91;70.54;98339.06;4486065;32;20159;-75
2021/12/27 01:40:20;;;;;;;19.25;7.50;;;;;;;-3.90;70.59;98345.88;4486352;31;20452;-74
2021/12/27 01:43:25;;;;;;;18.37;7.22;;;;;;;-3.74;69.82;98346.13;4472219;32;20104;-74
2021/12/27 01:46:07;;;;;;;13.55;6.75;;;;;;;-3.70;69.41;98346.84;4452377;32;20125;-74
2021/12/27 01:48:38;;;;;;;13.48;6.60;;;;;;;-3.78;69.87;98344.59;4452377;32;20164;-75
2021/12/27 01:51:08;;;;;;;16.80;6.47;;;;;;;-3.86;70.18;98337.19;4452553;32;20124;-74
2021/12/27 01:53:37;;;;;;;14.68;6.85;;;;;;;-3.97;70.46;98340.13;4452420;32;20148;-74
2021/12/27 01:56:06;;;;;;;19.37;8.32;;;;;;;-3.92;70.46;98342.53;4448846;32;111505;-74
2021/12/27 01:58:34;;;;;;;18.87;7.05;;;;;;;-3.95;70.78;98343.50;4452260;32;20123;-74
2021/12/27 02:01:04;;;;;;;20.20;7.82;;;;;;;-3.88;73.17;98343.25;4452275;32;20287;-74
2021/12/27 02:03:33;;;;;;;17.12;7.35;;;;;;;-3.80;73.33;98342.09;4452192;32;20152;-74
2021/12/27 02:06:06;;;;;;;16.80;7.20;;;;;;;-3.77;74.68;98346.22;4452443;32;20423;-74
2021/12/27 02:08:38;;;;;;;13.45;7.57;;;;;;;-3.66;75.59;98343.28;4452066;32;20204;-75
2021/12/27 02:11:05;;;;;;;17.05;7.20;;;;;;;-3.77;75.50;98347.09;4452259;32;20174;-74
2021/12/27 02:13:33;;;;;;;16.12;7.72;;;;;;;-3.89;74.91;98347.53;4439025;32;20120;-74
2021/12/27 02:16:00;;;;;;;17.70;7.60;;;;;;;-3.90;74.90;98345.88;4452106;32;20109;-74
2021/12/27 02:18:27;;;;;;;17.23;8.23;;;;;;;-3.80;73.77;98341.22;4452124;32;20151;-74
2021/12/27 02:20:55;;;;;;;16.50;7.55;;;;;;;-3.75;73.80;98335.06;4497468;31;20813;-75
2021/12/27 02:23:23;;;;;;;18.42;7.80;;;;;;;-3.72;73.54;98336.66;4501591;31;20087;-74
2021/12/27 02:25:50;;;;;;;21.02;7.45;;;;;;;-3.67;73.31;98339.87;4501377;31;20390;-75
2021/12/27 02:28:19;;;;;;;16.52;7.62;;;;;;;-3.46;70.98;98337.38;4501388;31;20449;-74
2021/12/27 02:30:49;;;;;;;18.70;7.45;;;;;;;-3.53;70.78;98334.22;4501625;31;20497;-74
2021/12/27 02:33:17;;;;;;;15.50;7.82;;;;;;;-3.50;70.51;98348.63;4501308;31;20088;-74
2021/12/27 02:35:48;;;;;;;20.70;6.97;;;;;;;-3.45;70.11;98334.75;4501413;31;20144;-74
2021/12/27 02:38:19;;;;;;;23.77;7.45;;;;;;;-3.64;69.91;98328.69;4501461;31;20122;-74
2021/12/27 02:40:47;;;;;;;17.40;7.97;;;;;;;-3.86;71.06;98321.00;4500030;31;20100;-74
2021/12/27 02:43:16;;;;;;;15.18;7.22;;;;;;;-3.85;71.59;98322.66;4501432;31;20122;-74
2021/12/27 02:45:46;;;;;;;17.55;8.07;;;;;;;-3.83;72.46;98329.41;4501309;31;20742;-74
2021/12/27 02:48:14;;;;;;;16.50;7.18;;;;;;;-3.87;72.48;98322.72;4501341;31;20489;-74
2021/12/27 02:50:43;;;;;;;17.67;6.97;;;;;;;-3.83;71.99;98324.28;4501304;31;20101;-74
2021/12/27 02:53:11;;;;;;;15.93;7.12;;;;;;;-3.84;72.04;98320.03;4501366;31;20164;-74
2021/12/27 02:55:39;;;;;;;15.05;7.55;;;;;;;-3.77;70.99;98318.94;4501288;31;20138;-74
2021/12/27 02:58:08;;;;;;;19.33;6.95;;;;;;;-3.83;71.41;98328.53;4501060;31;20130;-74
2021/12/27 03:00:51;;;;;;;16.67;6.78;;;;;;;-3.83;71.59;98319.16;4492993;31;20188;-74
2021/12/27 03:03:19;;;;;;;12.82;6.10;;;;;;;-3.69;70.84;98318.63;4485538;32;20088;-74
2021/12/27 03:05:47;;;;;;;13.02;6.25;;;;;;;-3.62;70.59;98324.34;4485341;31;20104;-75
2021/12/27 03:08:15;;;;;;;13.18;5.90;;;;;;;-3.63;70.75;98320.94;4485271;31;20101;-74
2021/12/27 03:10:49;;;;;;;16.12;6.80;;;;;;;-3.61;70.88;98315.78;4485412;31;20118;-74
2021/12/27 03:13:22;;;;;;;14.77;7.30;;;;;;;-3.62;71.19;98314.09;4485418;32;20552;-74
2021/12/27 03:15:51;;;;;;;18.75;6.37;;;;;;;-3.64;71.27;98308.22;4485412;31;20095;-74
2021/12/27 03:18:19;;;;;;;14.73;6.82;;;;;;;-3.56;70.79;98308.72;4485481;32;20096;-74
2021/12/27 03:20:47;;;;;;;12.82;6.28;;;;;;;-3.49;70.65;98312.72;4485394;31;20092;-74
2021/12/27 03:23:15;;;;;;;19.05;6.85;;;;;;;-3.51;70.44;98311.97;4485302;31;20462;-74
2021/12/27 03:25:42;;;;;;;19.35;8.82;;;;;;;-3.54;70.51;98312.09;4485330;31;20454;-74
2021/12/27 03:28:10;;;;;;;15.65;7.55;;;;;;;-3.49;70.54;98310.16;4485313;31;20779;-74
2021/12/27 03:30:37;;;;;;;14.32;6.15;;;;;;;-3.42;69.97;98311.59;4485530;31;20792;-74
2021/12/27 03:33:06;;;;;;;14.57;7.07;;;;;;;-3.46;70.00;98302.34;4485304;32;20104;-74
2021/12/27 03:35:39;;;;;;;15.05;6.57;;;;;;;-3.43;70.09;98304.78;4485155;31;20088;-74
2021/12/27 03:38:10;;;;;;;18.17;6.53;;;;;;;-3.43;70.22;98304.78;4485566;31;20163;-75
2021/12/27 03:40:39;;;;;;;15.52;6.28;;;;;;;-3.43;70.29;98303.97;4485384;31;20084;-74
2021/12/27 03:43:07;;;;;;;11.27;5.80;;;;;;;-3.37;69.80;98302.91;4485364;31;20100;-74
2021/12/27 03:45:37;;;;;;;23.12;8.25;;;;;;;-3.41;69.75;98300.47;4484995;31;20131;-74
2021/12/27 03:48:06;;;;;;;22.58;8.32;;;;;;;-3.39;69.67;98303.78;4484030;32;20453;-74
2021/12/27 03:50:33;;;;;;;12.50;6.18;;;;;;;-3.35;69.06;98307.03;4485033;31;20096;-74
2021/12/27 03:53:01;;;;;;;13.30;6.00;;;;;;;-3.45;69.42;98305.75;4484505;31;20108;-74
2021/12/27 03:55:28;;;;;;;13.65;6.57;;;;;;;-3.42;69.17;98311.59;4485183;31;20564;-74
2021/12/27 03:58:06;;;;;;;14.55;6.00;;;;;;;-3.43;69.05;98309.91;4485319;31;20108;-74
2021/12/27 04:03:22;;;;;;;13.80;5.20;;;;;;;-3.40;68.53;98309.78;4501067;31;20548;-74
2021/12/27 04:05:49;;;;;;;14.75;5.70;;;;;;;-3.40;68.90;98304.66;4500666;31;20126;-74
2021/12/27 04:08:18;;;;;;;11.43;5.10;;;;;;;-3.31;68.28;98310.34;4500902;31;20467;-74
2021/12/27 04:10:46;;;;;;;11.55;5.62;;;;;;;-3.29;68.38;98306.78;4500840;31;20084;-74
2021/12/27 04:13:14;;;;;;;12.65;5.70;;;;;;;-3.29;68.62;98316.22;4500793;31;20171;-74
2021/12/27 04:15:41;;;;;;;15.27;5.47;;;;;;;-3.23;68.35;98315.97;4500772;31;20393;-75
2021/12/27 04:18:12;;;;;;;11.43;5.57;;;;;;;-3.38;68.54;98307.16;4500901;31;20153;-74
2021/12/27 04:20:39;;;;;;;15.07;5.70;;;;;;;-3.47;69.06;98310.94;4500600;31;20088;-74
2021/12/27 04:23:07;;;;;;;15.20;6.25;;;;;;;-3.55;69.23;98305.28;4500896;31;20119;-74
2021/12/27 04:25:34;;;;;;;12.85;5.35;;;;;;;-3.55;69.47;98307.84;4500501;31;20092;-74
2021/12/27 04:28:02;;;;;;;9.52;5.12;;;;;;;-3.57;69.65;98305.34;4500844;31;20092;-74
2021/12/27 04:30:29;;;;;;;11.63;4.87;;;;;;;-3.61;69.73;98305.53;4500724;31;20114;-74
2021/12/27 04:32:57;;;;;;;12.40;5.47;;;;;;;-3.62;69.67;98298.72;4500571;31;20153;-74
2021/12/27 04:35:28;;;;;;;10.50;5.03;;;;;;;-3.62;69.50;98299.59;4500445;31;20140;-74
2021/12/27 04:37:55;;;;;;;11.15;5.18;;;;;;;-3.61;69.20;98300.41;4500409;31;20820;-74
2021/12/27 04:40:25;;;;;;;14.25;4.87;;;;;;;-3.52;68.90;98304.34;4500440;31;20168;-74
2021/12/27 04:43:01;;;;;;;13.07;5.40;;;;;;;-3.51;68.57;98306.00;4500462;31;20088;-74
2021/12/27 04:45:28;;;;;;;9.75;4.60;;;;;;;-3.58;69.17;98306.22;4500306;31;20144;-74
2021/12/27 04:47:55;;;;;;;10.57;5.10;;;;;;;-3.54;69.06;98308.66;4500325;31;20092;-74
2021/12/27 04:50:23;;;;;;;10.07;4.62;;;;;;;-3.48;68.78;98296.47;4500258;31;20096;-74
2021/12/27 04:52:53;;;;;;;13.90;4.90;;;;;;;-3.46;68.37;98298.97;4500441;31;20152;-74
2021/12/27 04:55:24;;;;;;;9.57;4.65;;;;;;;-3.32;67.91;98304.34;4500241;31;20087;-74
2021/12/27 04:57:52;;;;;;;9.82;4.30;;;;;;;-3.33;67.28;98310.41;4500032;31;20103;-74
2021/12/27 05:00:20;;;;;;;14.80;5.05;;;;;;;-3.31;66.90;98308.59;4495004;31;20118;-74
2021/12/27 05:02:47;;;;;;;10.90;4.75;;;;;;;-3.18;66.45;98314.03;4484222;31;20092;-74
2021/12/27 05:05:15;;;;;;;9.73;4.72;;;;;;;-3.12;64.69;98308.69;4486257;31;20148;-74
2021/12/27 05:07:44;;;;;;;11.43;4.18;;;;;;;-2.98;64.00;98317.53;4486263;31;20096;-74
2021/12/27 05:10:12;;;;;;;8.80;4.15;;;;;;;-2.98;64.32;98313.25;4486189;31;20467;-74
2021/12/27 05:12:39;;;;;;;9.77;4.00;;;;;;;-2.89;63.78;98304.34;4486370;32;20088;-74
2021/12/27 05:15:06;;;;;;;8.60;4.07;;;;;;;-2.82;63.52;98307.47;4486267;31;20111;-74
2021/12/27 05:17:34;;;;;;;10.93;4.10;;;;;;;-2.89;62.04;98310.28;4488117;31;20096;-75
2021/12/27 05:20:05;;;;;;;8.57;3.83;;;;;;;-2.80;61.92;98303.97;4500168;31;20134;-74
2021/12/27 05:22:32;;;;;;;8.85;3.62;;;;;;;-2.71;60.71;98305.28;4502143;31;20084;-75
2021/12/27 05:24:59;;;;;;;5.93;3.50;;;;;;;-2.83;61.20;98304.09;4501975;31;20096;-74
2021/12/27 05:27:27;;;;;;;9.75;3.62;;;;;;;-2.54;60.26;98300.25;4501942;31;20103;-74
2021/12/27 05:30:11;;;;;;;;;;;;;;;-2.48;59.56;98303.44;4502353;31;20072;-74
2021/12/27 05:32:40;;;;;;;10.15;4.60;;;;;;;-2.39;60.47;98306.47;4502033;31;19967;-75
2021/12/27 05:35:08;;;;;;;8.32;4.07;;;;;;;-2.51;60.88;98310.38;4501785;31;20160;-74
2021/12/27 05:37:37;;;;;;;13.48;4.35;;;;;;;-2.55;61.23;98298.59;4501772;31;20156;-75
2021/12/27 05:40:07;;;;;;;10.77;4.70;;;;;;;-2.64;62.23;98299.00;4501928;31;20175;-74
2021/12/27 05:42:35;;;;;;;10.18;4.68;;;;;;;-2.48;62.69;98299.16;4502009;31;20088;-74
2021/12/27 05:45:04;;;;;;;9.93;4.25;;;;;;;-2.40;60.03;98307.34;4501713;31;20092;-74
2021/12/27 05:47:32;;;;;;;10.13;4.12;;;;;;;-2.26;59.38;98293.09;4501956;31;20104;-74
2021/12/27 05:49:59;;;;;;;12.25;4.25;;;;;;;-2.29;58.73;98300.91;4501967;31;20099;-74
2021/12/27 05:52:26;;;;;;;7.50;4.05;;;;;;;-2.23;57.76;98292.94;4501921;31;20111;-74
2021/12/27 05:54:53;;;;;;;11.70;4.95;;;;;;;-2.09;58.46;98300.87;4501953;31;20127;-74
2021/12/27 05:57:20;;;;;;;10.88;4.65;;;;;;;-2.07;57.87;98306.75;4501748;31;20138;-74
2021/12/27 05:59:47;;;;;;;9.73;3.80;;;;;;;-2.04;58.01;98295.53;4501829;31;20164;-74
2021/12/27 06:02:15;;;;;;;14.20;4.30;;;;;;;-2.03;57.85;98295.44;4501865;31;20084;-75
2021/12/27 06:04:43;;;;;;;11.63;4.57;;;;;;;-2.05;57.43;98292.09;4501660;31;20111;-74
2021/12/27 06:07:10;;;;;;;9.40;3.70;;;;;;;-2.04;56.06;98286.06;4502104;31;20088;-75
2021/12/27 06:09:37;;;;;;;11.55;4.60;;;;;;;-2.01;56.28;98283.38;4501608;31;20080;-74
2021/12/27 06:12:05;;;;;;;10.88;5.15;;;;;;;-2.02;56.39;98286.00;4501829;31;20141;-74
2021/12/27 06:14:32;;;;;;;10.13;5.18;;;;;;;-1.93;56.01;98284.75;4501412;31;20096;-74
2021/12/27 06:16:59;;;;;;;15.13;5.65;;;;;;;-1.96;56.08;98286.53;4501402;31;20465;-75
2021/12/27 06:19:27;;;;;;;13.18;5.68;;;;;;;-1.94;56.81;98288.22;4501913;31;20092;-74
2021/12/27 06:21:54;;;;;;;16.67;5.30;;;;;;;-1.93;57.39;98284.75;4501635;31;20386;-74
2021/12/27 06:24:21;;;;;;;10.60;4.95;;;;;;;-2.00;57.64;98282.47;4501715;31;20188;-75
2021/12/27 06:26:48;;;;;;;13.52;5.07;;;;;;;-1.96;58.23;98283.16;4501625;31;20163;-75
2021/12/27 06:29:16;;;;;;;12.63;4.93;;;;;;;-1.87;57.76;98284.47;4501367;31;20783;-74
2021/12/27 06:31:43;;;;;;;12.98;4.82;;;;;;;-1.84;57.76;98280.00;4501509;31;20603;-74
2021/12/27 06:34:10;;;;;;;11.00;5.12;;;;;;;-1.85;57.92;98288.59;4501781;31;20176;-74
2021/12/27 06:36:38;;;;;;;11.65;4.87;;;;;;;-1.87;59.09;98285.28;4501257;31;20097;-74
2021/12/27 06:39:08;;;;;;;10.85;4.82;;;;;;;-1.77;59.13;98284.88;4501486;31;20563;-74
2021/12/27 06:41:36;;;;;;;10.57;5.05;;;;;;;-1.73;58.87;98274.38;4501403;31;20164;-74
2021/12/27 06:44:08;;;;;;;13.70;6.28;;;;;;;-1.63;58.36;98278.19;4501490;31;20112;-74
2021/12/27 06:46:36;;;;;;;14.27;5.68;;;;;;;-1.61;58.62;98271.22;4501375;31;20188;-74
2021/12/27 06:49:03;;;;;;;12.85;3.83;;;;;;;-1.73;59.15;98282.06;4501117;31;20134;-75
2021/12/27 06:51:30;;;;;;;11.43;5.50;;;;;;;-1.73;59.63;98282.06;4501372;31;20118;-74
2021/12/27 06:53:57;;;;;;;13.00;5.28;;;;;;;-1.79;59.51;98282.38;4501356;31;20499;-75
2021/12/27 06:56:25;;;;;;;12.32;5.95;;;;;;;-1.81;59.55;98279.06;4501213;31;20127;-74
2021/12/27 06:58:52;;;;;;;13.90;6.03;;;;;;;-1.88;60.84;98275.91;4501484;31;20087;-74
2021/12/27 07:01:20;;;;;;;16.25;6.30;;;;;;;-1.94;61.79;98273.63;4501119;31;20139;-74
2021/12/27 07:03:47;;;;;;;14.73;6.82;;;;;;;-1.88;60.90;98282.81;4501479;31;20177;-74
2021/12/27 07:06:14;;;;;;;13.65;5.72;;;;;;;-1.85;61.64;98283.47;4501164;31;20092;-74
2021/12/27 07:08:42;;;;;;;11.98;6.25;;;;;;;-1.89;62.17;98283.69;4501173;31;20453;-74
2021/12/27 07:11:10;;;;;;;10.45;5.45;;;;;;;-1.90;62.78;98279.47;4501321;31;20487;-74
2021/12/27 07:13:37;;;;;;;12.80;6.25;;;;;;;-1.96;62.98;98283.97;4501146;31;20092;-74
2021/12/27 07:16:05;;;;;;;11.57;6.07;;;;;;;-1.90;62.45;98277.75;4501169;31;20149;-74
2021/12/27 07:18:32;;;;;;;14.07;5.90;;;;;;;-1.81;61.91;98273.91;4501579;31;20083;-74
2021/12/27 07:20:59;;;;;;;16.02;6.78;;;;;;;-1.74;61.78;98275.28;4501201;31;20478;-74
2021/12/27 07:23:26;;;;;;;12.27;6.45;;;;;;;-1.76;62.41;98271.94;4501294;31;20189;-74
2021/12/27 07:25:54;;;;;;;13.80;5.72;;;;;;;-1.77;62.40;98272.88;4498924;31;20104;-74
2021/12/27 07:28:21;;;;;;;16.85;6.80;;;;;;;-1.71;61.14;98285.44;4499977;31;20616;-74
2021/12/27 07:30:49;;;;;;;16.70;6.35;;;;;;;-1.66;60.85;98293.72;4500117;31;20104;-74
2021/12/27 07:33:16;;;;;;;15.13;6.60;;;;;;;-1.62;60.04;98284.97;4501359;31;20103;-74
2021/12/27 07:35:43;;;;;;;13.57;6.28;;;;;;;-1.52;60.23;98290.50;4500945;31;20107;-74
2021/12/27 07:38:11;;;;;;;15.73;6.78;;;;;;;-1.50;58.82;98286.16;4501074;31;20501;-74
2021/12/27 07:40:38;;;;;;;15.63;7.00;;;;;;;-1.47;58.47;98287.72;4500789;31;20118;-74
2021/12/27 07:43:05;;;;;;;16.45;7.95;;;;;;;-1.48;59.33;98286.87;4501122;31;20092;-74
2021/12/27 07:45:33;;;;;;;15.63;7.62;;;;;;;-1.32;59.62;98287.00;4500981;31;20134;-74
2021/12/27 07:48:00;;;;;;;15.40;8.35;;;;;;;-1.27;60.90;98279.06;4500984;31;20080;-74
2021/12/27 07:50:27;;;;;;;19.10;8.52;;;;;;;-1.22;61.44;98281.41;4500992;31;20115;-74
2021/12/27 07:52:55;;;;;;;17.45;8.60;;;;;;;-1.18;61.92;98286.31;4500808;31;20454;-74
2021/12/27 07:55:27;;;;;;;16.92;8.10;;;;;;;-1.16;62.28;98288.81;4501030;31;20119;-74
2021/12/27 07:57:55;;;;;;;19.50;8.63;;;;;;;-1.05;61.34;98288.28;4500754;31;20100;-74
2021/12/27 08:00:23;;;;;;;16.83;7.87;;;;;;;-1.00;61.85;98276.88;4500830;31;20496;-74
2021/12/27 08:02:51;;;;;;;21.50;9.20;;;;;;;-1.01;62.57;98272.63;4500875;31;20601;-74
2021/12/27 08:05:18;;;;;;;18.62;7.28;;;;;;;-0.98;61.93;98274.22;4500695;31;20159;-74
2021/12/27 08:07:46;;;;;;;19.25;8.00;;;;;;;-1.03;60.83;98274.44;4500884;31;20511;-74
2021/12/27 08:10:14;;;;;;;16.92;7.10;;;;;;;-1.05;60.69;98278.81;4500661;31;20149;-75
2021/12/27 08:12:42;;;;;;;16.77;6.85;;;;;;;-1.11;60.57;98279.13;4500675;31;20126;-74
2021/12/27 08:15:10;;;;;;;15.77;8.15;;;;;;;-1.04;61.78;98272.78;4500729;31;20152;-74
2021/12/27 08:17:38;;;;;;;19.45;7.32;;;;;;;-0.97;61.36;98269.00;4499664;31;20130;-74
2021/12/27 08:20:07;;;;;;;22.40;7.32;;;;;;;-0.85;59.01;98274.41;4500919;31;20848;-74
2021/12/27 08:22:34;;;;;;;19.23;7.93;;;;;;;-0.77;58.75;98267.16;4500755;31;20450;-74
2021/12/27 08:25:02;;;;;;;15.27;8.00;;;;;;;-0.77;59.24;98269.72;4500637;31;20111;-74
2021/12/27 08:27:30;;;;;;;17.73;6.95;;;;;;;-0.82;58.26;98275.06;4500848;31;20136;-74
2021/12/27 08:30:00;;;;;;;14.82;5.97;;;;;;;-0.70;57.61;98263.34;4500519;31;20848;-74
2021/12/27 08:32:27;;;;;;;14.23;7.50;;;;;;;-0.59;57.66;98270.50;4500793;31;20076;-74
2021/12/27 08:34:54;;;;;;;14.93;5.95;;;;;;;-0.68;56.57;98269.25;4500644;31;20092;-74
2021/12/27 08:37:21;;;;;;;13.85;6.55;;;;;;;-0.57;57.19;98273.84;4500564;31;20118;-74
2021/12/27 08:39:49;;;;;;;12.75;6.35;;;;;;;-0.45;57.07;98277.53;4500337;31;20148;-74
2021/12/27 08:42:21;;;;;;;14.93;6.47;;;;;;;-0.52;56.66;98277.00;4500558;31;20083;-74
2021/12/27 08:44:48;;;;;;;17.17;6.82;;;;;;;-0.41;55.92;98284.16;4500568;31;20127;-74
2021/12/27 08:47:16;;;;;;;15.20;7.15;;;;;;;-0.23;56.62;98293.50;4500715;31;20425;-75
2021/12/27 08:49:44;;;;;;;15.65;6.45;;;;;;;-0.10;55.22;98295.41;4498979;31;20476;-74
2021/12/27 08:52:30;;;;;;;14.75;6.80;;;;;;;-0.12;55.58;98294.66;4500482;31;20157;-74
2021/12/27 08:55:01;;;;;;;19.10;8.13;;;;;;;-0.26;56.12;98288.50;4500250;31;20096;-74
2021/12/27 08:57:29;;;;;;;17.02;7.03;;;;;;;-0.27;55.37;98289.41;4500210;31;20197;-74
2021/12/27 08:59:57;;;;;;;23.80;7.37;;;;;;;-0.27;55.29;98299.72;4500223;31;20108;-74
2021/12/27 09:02:24;;;;;;;15.55;6.90;;;;;;;-0.33;54.86;98296.63;4500318;31;20088;-74
2021/12/27 09:04:51;;;;;;;15.52;7.03;;;;;;;-0.21;55.77;98289.09;4500347;31;20097;-74
2021/12/27 09:07:19;;;;;;;14.65;7.05;;;;;;;-0.10;55.04;98285.13;4500294;31;20087;-74
2021/12/27 09:09:46;;;;;;;18.20;7.22;;;;;;;-0.24;55.15;98285.84;4499754;31;20450;-74
2021/12/27 09:12:13;;;;;;;16.12;7.72;;;;;;;-0.44;55.19;98286.87;4500059;31;20234;-74
2021/12/27 09:14:41;;;;;;;19.25;7.20;;;;;;;-0.15;55.14;98280.22;4500021;31;20097;-74
2021/12/27 09:17:08;;;;;;;13.07;5.90;;;;;;;-0.13;54.43;98277.56;4500114;31;20103;-74
2021/12/27 09:19:35;;;;;;;14.80;5.60;;;;;;;-0.10;54.65;98282.53;4499947;31;20080;-74
2021/12/27 09:22:03;;;;;;;11.25;5.55;;;;;;;-0.03;53.45;98283.84;4499941;31;20100;-74
2021/12/27 09:24:31;;;;;;;15.65;6.00;;;;;;;-0.07;52.35;98277.22;4499936;31;20100;-74
2021/12/27 09:26:58;;;;;;;12.25;5.85;;;;;;;-0.08;52.51;98278.13;4499853;31;21142;-74
2021/12/27 09:29:26;;;;;;;12.00;5.07;;;;;;;-0.17;51.71;98278.63;4500094;31;20152;-74
2021/12/27 09:31:53;;;;;;;12.77;5.53;;;;;;;-0.03;51.44;98273.56;4499781;31;20107;-74
2021/12/27 09:34:21;;;;;;;15.07;6.30;;;;;;;0.05;50.69;98274.00;4499826;31;20137;-74
2021/12/27 09:36:48;;;;;;;9.75;4.55;;;;;;;0.10;50.15;98274.56;4499796;31;20545;-74
2021/12/27 09:39:15;;;;;;;10.65;4.43;;;;;;;-0.04;48.86;98262.44;4499507;31;20118;-74
2021/12/27 09:41:43;;;;;;;13.00;5.25;;;;;;;-0.16;45.91;98257.94;4499865;31;20092;-74
2021/12/27 09:44:10;;;;;;;11.68;4.50;;;;;;;-0.04;48.29;98266.75;4499570;31;20572;-74
2021/12/27 09:46:38;;;;;;;11.68;4.75;;;;;;;0.14;47.10;98257.22;4499466;31;20080;-74
2021/12/27 09:49:10;;;;;;;14.35;5.85;;;;;;;0.31;47.44;98264.00;4499359;31;20100;-74
2021/12/27 09:51:40;;;;;;;9.48;5.03;;;;;;;0.39;47.34;98254.09;4501547;31;20084;-74
2021/12/27 09:54:08;;;;;;;11.52;5.10;;;;;;;0.26;46.93;98255.69;4502025;31;20108;-74
2021/12/27 09:56:36;;;;;;;13.57;4.97;;;;;;;0.55;48.16;98258.41;4501796;31;20104;-74
2021/12/27 09:59:04;;;;;;;9.13;5.20;;;;;;;0.61;49.18;98258.88;4501792;31;20100;-74
2021/12/27 10:01:31;;;;;;;10.32;5.55;;;;;;;0.49;47.84;98247.50;4488619;31;20092;-74
2021/12/27 10:04:01;;;;;;;10.95;5.22;;;;;;;0.46;49.25;98257.97;4486195;32;20112;-74
2021/12/27 10:06:29;;;;;;;12.75;4.95;;;;;;;0.66;48.49;98250.88;4486060;31;20153;-74
2021/12/27 10:08:59;;;;;;;12.75;5.60;;;;;;;0.75;48.52;98254.69;4486041;31;20486;-74
2021/12/27 10:11:31;;;;;;;14.85;5.72;;;;;;;0.79;48.64;98250.97;4485975;31;20111;-74
2021/12/27 10:14:14;;;;;;;10.10;5.22;;;;;;;0.91;48.68;98252.03;4485860;31;20111;-74
2021/12/27 10:16:46;;;;;;;12.93;6.07;;;;;;;0.91;47.85;98252.88;4485956;31;20158;-74
2021/12/27 10:19:16;;;;;;;13.57;6.65;;;;;;;0.94;47.26;98250.13;4485988;31;20127;-74
2021/12/27 10:21:45;;;;;;;12.02;5.28;;;;;;;0.62;48.69;98249.38;4485868;31;20485;-74
2021/12/27 10:24:14;;;;;;;11.02;5.20;;;;;;;0.84;48.31;98242.06;4485847;31;20096;-74
2021/12/27 10:26:43;;;;;;;13.00;5.40;;;;;;;0.76;48.43;98241.69;4485745;31;20096;-74
2021/12/27 10:29:19;;;;;;;11.60;4.93;;;;;;;0.76;47.84;98252.00;4485978;31;20134;-74
2021/12/27 10:32:05;;;;;;;8.05;4.80;;;;;;;0.91;47.22;98249.44;4485718;31;20942;-74
2021/12/27 10:34:52;;;;;;;13.07;6.40;;;;;;;0.79;45.84;98261.28;4485630;32;20172;-74
2021/12/27 10:37:39;;;;;;;11.52;5.37;;;;;;;0.92;45.95;98256.28;4485750;31;20110;-74
2021/12/27 10:40:09;;;;;;;12.73;5.82;;;;;;;1.28;46.20;98255.03;4485560;31;20112;-74
2021/12/27 10:42:38;;;;;;;11.40;5.60;;;;;;;1.46;47.68;98248.78;4485712;31;20127;-74
2021/12/27 10:45:18;;;;;;;13.57;6.20;;;;;;;1.59;46.66;98244.53;4485455;31;20088;-74
2021/12/27 10:47:51;;;;;;;12.57;5.72;;;;;;;1.41;46.93;98253.38;4485801;31;20509;-74
2021/12/27 10:50:20;;;;;;;15.55;6.12;;;;;;;1.59;47.54;98247.09;4485295;31;20089;-75
2021/12/27 10:52:53;;;;;;;10.80;5.15;;;;;;;1.54;46.14;98237.97;4485638;31;20116;-74
2021/12/27 10:55:29;;;;;;;11.88;5.18;;;;;;;1.64;46.21;98248.59;4485593;31;20115;-75
2021/12/27 10:58:18;;;;;;;12.48;5.75;;;;;;;1.98;46.23;98241.31;4485582;31;20175;-74
2021/12/27 11:00:54;;;;;;;12.60;6.00;;;;;;;2.01;44.59;98241.13;4493565;31;20083;-74
2021/12/27 11:03:24;;;;;;;12.02;6.75;;;;;;;2.11;45.79;98242.22;4501508;31;20088;-74
2021/12/27 11:05:52;;;;;;;13.15;6.40;;;;;;;2.20;46.08;98231.28;4501042;31;20084;-74
2021/12/27 11:08:26;;;;;;;11.30;6.05;;;;;;;2.27;45.84;98227.41;4501515;31;20091;-74
2021/12/27 11:10:54;;;;;;;12.15;6.45;;;;;;;2.36;45.08;98222.56;4501210;31;20076;-74
2021/12/27 11:13:22;;;;;;;12.10;6.45;;;;;;;2.49;45.54;98224.25;4501250;31;20109;-75
2021/12/27 11:15:50;;;;;;;13.90;6.57;;;;;;;2.56;43.74;98222.09;4501040;31;20124;-74
2021/12/27 11:18:17;;;;;;;13.18;5.85;;;;;;;2.17;42.63;98225.50;4501318;31;20092;-75
2021/12/27 11:20:51;;;;;;;15.23;5.62;;;;;;;2.05;41.92;98225.34;4501052;31;20108;-74
2021/12/27 11:23:20;;;;;;;14.35;6.12;;;;;;;2.29;42.50;98217.78;4501573;31;20107;-74
2021/12/27 11:25:47;;;;;;;14.73;7.18;;;;;;;2.38;42.19;98216.38;4499843;31;20145;-74
2021/12/27 11:28:34;;;;;;;15.52;7.82;;;;;;;2.46;41.67;98216.69;4501261;31;20099;-74
2021/12/27 11:31:08;;;;;;;18.02;8.38;;;;;;;2.40;46.13;98216.25;4501026;31;20517;-74
2021/12/27 11:34:14;;;;;;;17.53;8.97;;;;;;;2.04;49.60;98213.34;4501304;31;20210;-74
2021/12/27 11:36:46;;;;;;;18.75;9.45;;;;;;;1.69;50.90;98207.81;4435938;32;20190;-74
2021/12/27 11:39:25;;;;;;;17.37;9.35;;;;;;;1.79;51.28;98211.47;4436707;32;20119;-74
2021/12/27 11:42:03;;;;;;;22.75;10.52;;;;;;;1.86;51.65;98201.59;4436188;32;20176;-74
2021/12/27 11:44:37;;;;;;;23.80;9.68;;;;;;;1.83;51.80;98199.19;4436124;32;20109;-74